Terminal Aerodrome Forecast
Issued by NWS

Home | Current Version | Previous Version | Text Only | Print | Product List | Glossary On
Versions: 1 2 3 4 5 6 7 8 9 10 11 12 13 14 15 16 17 18 19 20 21 22 23 24 25 26
000
FTUS41 KALY 222211 AAB
TAFPSF
TAF AMD
KPSF 222211Z 2222/2318 19009KT P6SM FEW060
     FM230000 21012G26KT 6SM -SHRA VCTS BKN130CB
      TEMPO 2300/2303 24015G30KT 1SM TSRA OVC025CB
     FM230300 22012G24KT 6SM -SHRA OVC030
     FM230500 22010G21KT P6SM OVC025
     FM230800 25009KT P6SM OVC015
     FM231100 28009KT P6SM BKN250=

USA.gov is the U.S. government's official web portal to all federal, state and local government web resources and services.